createdAt,value
2022-08-28T00:00:10.753Z,75.56
2022-08-28T00:02:12.117Z,75.42
2022-08-28T00:04:13.521Z,75.58
2022-08-28T00:06:14.891Z,75.58
2022-08-28T00:08:16.941Z,75.44
2022-08-28T00:10:18.316Z,75.65
2022-08-28T00:12:19.715Z,75.49
2022-08-28T00:14:21.214Z,75.36
2022-08-28T00:16:22.865Z,75.67
2022-08-28T00:18:28.174Z,75.63
2022-08-28T00:20:29.600Z,75.63
2022-08-28T00:22:31.319Z,75.57
2022-08-28T00:24:32.652Z,75.89
2022-08-28T00:26:52.383Z,75.60
2022-08-28T00:28:53.698Z,76.09
2022-08-28T00:30:55.306Z,75.87
2022-08-28T00:32:56.863Z,75.72
2022-08-28T00:34:58.227Z,75.92
2022-08-28T00:37:00.229Z,75.97
2022-08-28T00:39:01.586Z,75.92
2022-08-28T00:41:04.126Z,75.73
2022-08-28T00:43:06.358Z,75.68
2022-08-28T00:45:07.701Z,75.74
2022-08-28T00:47:09.919Z,75.75
2022-08-28T00:49:11.252Z,75.67
2022-08-28T00:51:31.241Z,75.85
2022-08-28T00:53:33.020Z,75.60
2022-08-28T00:55:34.618Z,75.94
2022-08-28T00:57:35.974Z,76.04
2022-08-28T00:59:37.567Z,76.00
2022-08-28T01:01:39.240Z,75.99
2022-08-28T01:03:40.732Z,76.00
2022-08-28T01:05:44.277Z,76.02
2022-08-28T01:07:45.695Z,75.85
2022-08-28T01:09:47.047Z,75.94
2022-08-28T01:11:48.415Z,75.92
2022-08-28T01:13:49.793Z,76.07
2022-08-28T01:15:51.447Z,76.24
2022-08-28T01:17:52.848Z,76.15
2022-08-28T01:19:57.153Z,75.97
2022-08-28T01:21:58.518Z,75.82
2022-08-28T01:23:59.852Z,76.19
2022-08-28T01:26:01.438Z,75.91
2022-08-28T01:28:06.819Z,75.98
2022-08-28T01:30:08.191Z,76.27
2022-08-28T01:32:09.524Z,76.03
2022-08-28T01:34:12.040Z,75.75
2022-08-28T01:36:13.440Z,76.00
2022-08-28T01:38:14.875Z,75.83
2022-08-28T01:40:23.246Z,76.27
2022-08-28T01:42:26.014Z,76.22
2022-08-28T01:44:27.344Z,76.17
2022-08-28T01:46:29.489Z,76.06
2022-08-28T01:48:30.907Z,75.95
2022-08-28T01:50:32.429Z,75.98
2022-08-28T01:52:33.772Z,76.04
2022-08-28T01:54:35.079Z,76.04
2022-08-28T01:56:37.800Z,76.19
2022-08-28T01:58:39.174Z,76.05
2022-08-28T02:00:40.528Z,76.20
2022-08-28T02:02:41.839Z,76.20
2022-08-28T02:04:47.563Z,76.37
2022-08-28T02:06:49.680Z,76.46
2022-08-28T02:08:55.251Z,76.36
2022-08-28T02:10:56.628Z,76.44
2022-08-28T02:12:59.099Z,76.53
2022-08-28T02:15:00.707Z,76.48
2022-08-28T02:17:02.622Z,76.49
2022-08-28T02:19:03.937Z,76.49
2022-08-28T02:21:05.235Z,76.50
2022-08-28T02:23:06.680Z,76.60
2022-08-28T02:25:08.052Z,76.88
2022-08-28T02:27:09.370Z,76.55
2022-08-28T02:29:10.683Z,76.67
2022-08-28T02:31:12.021Z,76.64
2022-08-28T02:33:13.405Z,76.49
2022-08-28T02:35:14.799Z,76.73
2022-08-28T02:37:16.150Z,76.64
2022-08-28T02:39:17.488Z,76.68
2022-08-28T02:41:18.809Z,76.56
2022-08-28T02:43:21.405Z,76.58
2022-08-28T02:45:22.751Z,76.60
2022-08-28T02:47:24.167Z,76.65
2022-08-28T02:49:25.516Z,76.45
2022-08-28T02:51:35.584Z,76.60
2022-08-28T02:53:36.999Z,76.75
2022-08-28T02:55:38.363Z,76.62
2022-08-28T02:57:39.893Z,76.59
2022-08-28T02:59:41.225Z,76.67
2022-08-28T03:01:42.635Z,76.69
2022-08-28T03:03:44.074Z,76.88
2022-08-28T03:05:45.412Z,76.67
2022-08-28T03:07:46.728Z,76.74
2022-08-28T03:09:48.048Z,76.70
2022-08-28T03:11:49.594Z,76.91
2022-08-28T03:13:50.919Z,76.70
2022-08-28T03:15:52.285Z,76.85
2022-08-28T03:17:57.331Z,76.74
2022-08-28T03:19:59.085Z,76.94
2022-08-28T03:22:00.427Z,76.95
2022-08-28T03:24:01.762Z,77.06
2022-08-28T03:26:03.167Z,77.05
2022-08-28T03:28:04.550Z,76.96
2022-08-28T03:30:07.101Z,76.95
2022-08-28T03:32:08.436Z,77.00
2022-08-28T03:34:09.755Z,77.21
2022-08-28T03:36:11.127Z,77.14
2022-08-28T03:38:12.572Z,77.08
2022-08-28T03:40:14.634Z,77.12
2022-08-28T03:42:16.007Z,77.24
2022-08-28T03:44:17.355Z,77.21
2022-08-28T03:46:18.837Z,77.16
2022-08-28T03:48:20.243Z,77.26
2022-08-28T03:50:21.995Z,77.00
2022-08-28T03:52:25.515Z,77.28
2022-08-28T03:54:26.840Z,77.19
2022-08-28T03:56:28.224Z,77.27
2022-08-28T03:58:29.542Z,77.29
2022-08-28T04:00:30.855Z,77.45
2022-08-28T04:02:32.169Z,77.38
2022-08-28T04:04:33.501Z,77.30
2022-08-28T04:06:36.138Z,77.16
2022-08-28T04:08:49.350Z,77.32
2022-08-28T04:10:50.679Z,77.27
2022-08-28T04:12:51.991Z,77.16
2022-08-28T04:14:53.387Z,77.20
2022-08-28T04:16:56.690Z,77.08
2022-08-28T04:19:01.105Z,77.23
2022-08-28T04:21:03.134Z,77.16
2022-08-28T04:23:05.799Z,77.32
2022-08-28T04:25:07.167Z,77.42
2022-08-28T04:27:08.523Z,77.13
2022-08-28T04:29:09.851Z,77.13
2022-08-28T04:31:11.197Z,77.21
2022-08-28T04:33:12.605Z,77.12
2022-08-28T04:35:13.979Z,77.14
2022-08-28T04:37:15.349Z,77.18
2022-08-28T04:39:16.936Z,77.29
2022-08-28T04:41:18.268Z,77.27
2022-08-28T04:43:19.632Z,77.42
2022-08-28T04:45:22.001Z,77.17
2022-08-28T04:47:23.766Z,77.26
2022-08-28T04:49:26.005Z,77.61
2022-08-28T04:51:27.522Z,77.15
2022-08-28T04:53:29.543Z,77.34
2022-08-28T04:55:54.425Z,77.21
2022-08-28T04:57:53.034Z,77.11
2022-08-28T04:59:54.456Z,77.16
2022-08-28T05:01:55.875Z,77.29
2022-08-28T05:03:57.719Z,77.12
2022-08-28T05:05:59.139Z,77.19
2022-08-28T05:08:00.623Z,77.27
2022-08-28T05:10:02.040Z,77.15
2022-08-28T05:12:03.824Z,77.19
2022-08-28T05:14:05.229Z,77.34
2022-08-28T05:16:06.733Z,77.25
2022-08-28T05:18:08.154Z,77.22
2022-08-28T05:20:09.630Z,77.17
2022-08-28T05:22:11.023Z,77.35
2022-08-28T05:24:13.812Z,77.16
2022-08-28T05:26:15.220Z,77.30
2022-08-28T05:28:17.166Z,77.22
2022-08-28T05:30:18.514Z,77.20
2022-08-28T05:32:19.846Z,77.61
2022-08-28T05:34:21.262Z,77.41
2022-08-28T05:36:22.854Z,77.32
2022-08-28T05:38:24.252Z,77.49
2022-08-28T05:40:26.130Z,77.42
2022-08-28T05:42:31.018Z,77.43
2022-08-28T05:44:32.764Z,77.41
2022-08-28T05:46:34.645Z,77.60
2022-08-28T05:48:38.296Z,77.62
2022-08-28T05:50:43.066Z,77.71
2022-08-28T05:52:48.992Z,77.85
2022-08-28T05:54:50.339Z,77.72
2022-08-28T05:56:51.654Z,77.68
2022-08-28T05:58:53.018Z,77.76
2022-08-28T06:00:54.352Z,77.91
2022-08-28T06:02:55.824Z,77.90
2022-08-28T06:04:57.812Z,77.90
2022-08-28T06:06:59.135Z,77.98
2022-08-28T06:09:00.537Z,77.83
2022-08-28T06:11:02.285Z,78.04
2022-08-28T06:13:04.475Z,78.11
2022-08-28T06:15:06.078Z,77.80
2022-08-28T06:17:07.480Z,77.93
2022-08-28T06:19:09.361Z,77.87
2022-08-28T06:21:10.815Z,77.86
2022-08-28T06:23:12.160Z,77.94
2022-08-28T06:25:14.321Z,78.11
2022-08-28T06:27:16.012Z,78.07
2022-08-28T06:29:21.020Z,78.06
2022-08-28T06:31:24.498Z,78.00
2022-08-28T06:33:27.356Z,77.76
2022-08-28T06:35:28.683Z,77.66
2022-08-28T06:37:30.059Z,77.50
2022-08-28T06:39:31.400Z,77.79
2022-08-28T06:41:32.807Z,77.86
2022-08-28T06:43:34.147Z,77.93
2022-08-28T06:45:35.801Z,77.88
2022-08-28T06:47:37.179Z,77.92
2022-08-28T06:49:38.717Z,77.95
2022-08-28T06:51:40.091Z,77.80
2022-08-28T06:53:41.472Z,77.87
2022-08-28T06:55:42.821Z,77.83
2022-08-28T06:57:47.235Z,77.77
2022-08-28T06:59:49.228Z,77.80
2022-08-28T07:01:53.187Z,77.91
2022-08-28T07:03:54.706Z,77.81
2022-08-28T07:05:56.037Z,77.69
2022-08-28T07:07:57.510Z,77.70
2022-08-28T07:09:58.827Z,77.92
2022-08-28T07:12:00.898Z,77.53
2022-08-28T07:14:02.340Z,77.56
2022-08-28T07:16:03.788Z,77.46
2022-08-28T07:18:05.218Z,77.72
2022-08-28T07:20:07.268Z,77.77
2022-08-28T07:22:08.604Z,77.68
2022-08-28T07:24:10.549Z,77.88
2022-08-28T07:26:11.888Z,77.92
2022-08-28T07:28:13.303Z,77.60
2022-08-28T07:30:14.712Z,77.64
2022-08-28T07:32:17.376Z,77.70
2022-08-28T07:34:18.835Z,77.50
2022-08-28T07:36:29.606Z,77.79
2022-08-28T07:38:31.515Z,77.59
2022-08-28T07:40:33.037Z,77.95
2022-08-28T07:43:06.708Z,77.84
2022-08-28T07:45:08.168Z,77.56
2022-08-28T07:47:11.618Z,77.35
2022-08-28T07:49:13.200Z,77.29
2022-08-28T07:51:14.551Z,77.30
2022-08-28T07:53:15.863Z,77.32
2022-08-28T07:55:17.183Z,76.98
2022-08-28T07:57:20.556Z,76.98
2022-08-28T07:59:24.246Z,77.14
2022-08-28T08:01:25.680Z,76.85
2022-08-28T08:03:27.452Z,76.82
2022-08-28T08:05:28.819Z,76.98
2022-08-28T08:07:30.564Z,76.95
2022-08-28T08:09:31.941Z,76.67
2022-08-28T08:11:33.294Z,76.68
2022-08-28T08:13:34.983Z,76.50
2022-08-28T08:15:36.367Z,76.66
2022-08-28T08:17:37.743Z,76.74
2022-08-28T08:19:39.392Z,76.47
2022-08-28T08:21:40.768Z,76.35
2022-08-28T08:23:42.179Z,76.45
2022-08-28T08:25:43.532Z,76.28
2022-08-28T08:27:44.971Z,76.45
2022-08-28T08:29:46.309Z,76.35
2022-08-28T08:31:47.705Z,76.28
2022-08-28T08:33:49.328Z,76.11
2022-08-28T08:35:51.155Z,76.04
2022-08-28T08:37:52.614Z,76.24
2022-08-28T08:39:54.886Z,76.18
2022-08-28T08:41:56.283Z,76.18
2022-08-28T08:43:57.684Z,75.92
2022-08-28T08:45:59.091Z,75.85
2022-08-28T08:48:00.435Z,76.02
2022-08-28T08:50:01.764Z,76.00
2022-08-28T08:52:03.139Z,75.76
2022-08-28T08:54:04.523Z,75.88
2022-08-28T08:56:06.235Z,75.85
2022-08-28T08:58:07.651Z,75.85
2022-08-28T09:00:13.678Z,75.72
2022-08-28T09:02:22.324Z,75.83
2022-08-28T09:04:34.405Z,75.79
2022-08-28T09:06:36.791Z,75.84
2022-08-28T09:08:38.187Z,75.71
2022-08-28T09:10:39.750Z,75.63
2022-08-28T09:12:41.100Z,75.82
2022-08-28T09:14:42.460Z,75.67
2022-08-28T09:16:43.783Z,75.60
2022-08-28T09:18:45.116Z,75.42
2022-08-28T09:20:46.540Z,75.39
2022-08-28T09:22:47.916Z,75.47
2022-08-28T09:24:49.275Z,75.43
2022-08-28T09:26:51.799Z,75.46
2022-08-28T09:28:53.463Z,75.45
2022-08-28T09:30:54.869Z,75.28
2022-08-28T09:32:56.225Z,75.38
2022-08-28T09:34:57.588Z,75.32
2022-08-28T09:36:58.983Z,75.61
2022-08-28T09:39:00.290Z,75.31
2022-08-28T09:41:20.479Z,75.59
2022-08-28T09:43:27.788Z,75.55
2022-08-28T09:45:29.168Z,75.37
2022-08-28T09:47:30.535Z,75.37
2022-08-28T09:49:31.914Z,75.42
2022-08-28T09:51:37.128Z,75.31
2022-08-28T09:53:38.507Z,75.39
2022-08-28T09:55:39.833Z,75.40
2022-08-28T09:57:41.172Z,75.42
2022-08-28T09:59:42.505Z,75.48
2022-08-28T10:01:45.102Z,75.22
2022-08-28T10:03:46.757Z,75.26
2022-08-28T10:05:48.086Z,75.14
2022-08-28T10:07:49.425Z,75.44
2022-08-28T10:09:50.816Z,75.42
2022-08-28T10:11:52.172Z,75.05
2022-08-28T10:13:53.491Z,75.21
2022-08-28T10:15:54.901Z,75.09
2022-08-28T10:17:56.330Z,75.29
2022-08-28T10:19:58.427Z,75.11
2022-08-28T10:21:59.730Z,75.18
2022-08-28T10:24:05.396Z,75.01
2022-08-28T10:26:07.127Z,75.07
2022-08-28T10:28:08.509Z,74.95
2022-08-28T10:30:13.352Z,75.25
2022-08-28T10:32:14.911Z,74.95
2022-08-28T10:34:16.295Z,74.83
2022-08-28T10:36:27.339Z,74.78
2022-08-28T10:38:36.522Z,74.94
2022-08-28T10:40:37.949Z,74.82
2022-08-28T10:42:39.398Z,74.88
2022-08-28T10:44:40.770Z,74.99
2022-08-28T10:46:42.404Z,75.18
2022-08-28T10:48:43.795Z,74.94
2022-08-28T10:50:45.218Z,74.95
2022-08-28T10:52:46.579Z,74.84
2022-08-28T10:54:48.047Z,75.17
2022-08-28T10:56:56.353Z,75.04
2022-08-28T10:58:58.956Z,74.86
2022-08-28T11:01:01.297Z,74.85
2022-08-28T11:03:02.794Z,74.81
2022-08-28T11:05:04.134Z,74.93
2022-08-28T11:07:05.450Z,74.78
2022-08-28T11:09:25.003Z,74.97
2022-08-28T11:11:26.329Z,74.94
2022-08-28T11:13:27.669Z,74.73
2022-08-28T11:15:36.357Z,74.90
2022-08-28T11:17:38.595Z,74.99
2022-08-28T11:19:43.963Z,74.83
2022-08-28T11:21:46.703Z,74.91
2022-08-28T11:23:49.064Z,74.80
2022-08-28T11:25:51.767Z,74.35
2022-08-28T11:27:53.147Z,74.70
2022-08-28T11:29:55.534Z,74.54
2022-08-28T11:31:56.920Z,74.72
2022-08-28T11:34:00.090Z,75.03
2022-08-28T11:36:01.439Z,74.73
2022-08-28T11:38:02.768Z,75.02
2022-08-28T11:40:04.116Z,74.94
2022-08-28T11:42:05.467Z,75.12
2022-08-28T11:44:06.866Z,75.19
2022-08-28T11:46:08.264Z,75.15
2022-08-28T11:48:10.130Z,75.37
2022-08-28T11:50:11.506Z,75.11
2022-08-28T11:52:12.807Z,75.49
2022-08-28T11:54:14.110Z,75.57
2022-08-28T11:56:16.338Z,75.49
2022-08-28T11:58:31.862Z,75.69
2022-08-28T12:00:33.195Z,75.69
2022-08-28T12:02:35.576Z,75.85
2022-08-28T12:04:36.954Z,75.91
2022-08-28T12:06:38.336Z,75.95
2022-08-28T12:08:39.651Z,75.88
2022-08-28T12:10:40.967Z,75.97
2022-08-28T12:12:42.295Z,76.09
2022-08-28T12:14:43.620Z,76.13
2022-08-28T12:16:44.951Z,76.09
2022-08-28T12:18:46.383Z,76.09
2022-08-28T12:20:47.718Z,76.05
2022-08-28T12:22:50.313Z,76.11
2022-08-28T12:24:51.633Z,76.13
2022-08-28T12:26:53.272Z,76.14
2022-08-28T12:28:54.647Z,76.15
2022-08-28T12:30:56.178Z,76.30
2022-08-28T12:32:57.549Z,76.14
2022-08-28T12:34:58.860Z,76.38
2022-08-28T12:37:00.195Z,76.26
2022-08-28T12:39:01.648Z,76.38
2022-08-28T12:41:03.066Z,76.44
2022-08-28T12:43:04.598Z,76.58
2022-08-28T12:45:06.013Z,76.55
2022-08-28T12:47:07.419Z,76.51
2022-08-28T12:49:08.765Z,76.44
2022-08-28T12:51:10.091Z,76.51
2022-08-28T12:53:11.765Z,76.68
2022-08-28T12:55:13.132Z,76.14
2022-08-28T12:57:14.488Z,76.02
2022-08-28T12:59:15.799Z,76.00
2022-08-28T13:01:17.235Z,76.06
2022-08-28T13:03:18.672Z,76.34
2022-08-28T13:05:20.012Z,75.30
2022-08-28T13:07:21.321Z,74.88
2022-08-28T13:09:22.622Z,74.31
2022-08-28T13:11:23.991Z,74.94
2022-08-28T13:13:25.516Z,75.58
2022-08-28T13:15:26.894Z,75.59
2022-08-28T13:17:28.202Z,74.52
2022-08-28T13:19:29.773Z,74.68
2022-08-28T13:21:34.081Z,75.16
2022-08-28T13:23:36.079Z,74.88
2022-08-28T13:25:37.461Z,75.44
2022-08-28T13:27:39.894Z,75.46
2022-08-28T13:29:41.394Z,75.41
2022-08-28T13:31:43.282Z,75.32
2022-08-28T13:33:44.633Z,75.24
2022-08-28T13:35:46.766Z,75.34
2022-08-28T13:37:48.206Z,75.35
2022-08-28T13:39:49.587Z,75.37
2022-08-28T13:41:50.934Z,75.41
2022-08-28T13:43:52.238Z,75.14
2022-08-28T13:45:53.601Z,75.28
2022-08-28T13:47:55.131Z,74.96
2022-08-28T13:49:56.602Z,75.29
2022-08-28T13:51:58.032Z,75.28
2022-08-28T13:53:59.395Z,75.40
2022-08-28T13:56:02.759Z,75.32
2022-08-28T13:58:04.299Z,75.33
2022-08-28T14:00:05.666Z,75.45
2022-08-28T14:02:26.313Z,75.41
2022-08-28T14:04:27.654Z,75.29
2022-08-28T14:06:31.628Z,74.97
2022-08-28T14:08:33.183Z,75.32
2022-08-28T14:10:35.454Z,75.12
2022-08-28T14:12:36.821Z,75.38
2022-08-28T14:14:38.166Z,74.18
2022-08-28T14:18:41.347Z,71.48
2022-08-28T14:20:42.874Z,71.67
2022-08-28T14:22:44.182Z,70.20
2022-08-28T14:24:46.153Z,69.88
2022-08-28T14:26:47.457Z,69.83
2022-08-28T14:28:48.767Z,70.24
2022-08-28T14:30:50.273Z,68.46
2022-08-28T14:32:51.587Z,67.81
2022-08-28T14:34:53.396Z,67.16
2022-08-28T14:36:57.870Z,67.12
2022-08-28T14:39:02.792Z,67.22
2022-08-28T14:41:06.770Z,68.74
2022-08-28T14:43:08.135Z,67.80
2022-08-28T14:45:09.540Z,66.73
2022-08-28T14:47:10.888Z,66.40
2022-08-28T14:49:12.225Z,66.53
2022-08-28T14:51:13.555Z,67.09
2022-08-28T14:53:15.189Z,67.84
2022-08-28T14:55:18.825Z,68.04
2022-08-28T14:57:20.247Z,68.24
2022-08-28T14:59:24.200Z,68.20
2022-08-28T15:01:36.258Z,68.40
2022-08-28T15:03:42.071Z,69.11
2022-08-28T15:05:43.585Z,69.34
2022-08-28T15:07:45.747Z,68.62
2022-08-28T15:09:47.158Z,68.55
2022-08-28T15:11:48.523Z,69.30
2022-08-28T15:13:49.860Z,69.01
2022-08-28T15:15:51.216Z,69.41
2022-08-28T15:17:52.532Z,69.58
2022-08-28T15:19:53.942Z,69.31
2022-08-28T15:21:55.842Z,69.17
2022-08-28T15:23:57.814Z,70.07
2022-08-28T15:25:59.774Z,71.36
2022-08-28T15:28:01.080Z,70.18
2022-08-28T15:30:02.440Z,71.04
2022-08-28T15:32:04.167Z,71.44
2022-08-28T15:34:06.536Z,70.73
2022-08-28T15:36:14.870Z,70.11
2022-08-28T15:38:16.225Z,70.09
2022-08-28T15:40:36.009Z,70.05
2022-08-28T15:42:37.352Z,70.30
2022-08-28T15:44:38.982Z,69.44
2022-08-28T15:46:40.364Z,70.13
2022-08-28T15:48:41.789Z,69.28
2022-08-28T15:50:43.879Z,70.21
2022-08-28T15:52:45.376Z,69.45
2022-08-28T15:54:46.744Z,69.44
2022-08-28T15:56:49.792Z,69.63
2022-08-28T15:58:54.173Z,69.52
2022-08-28T16:00:55.789Z,69.44
2022-08-28T16:03:00.975Z,69.52
2022-08-28T16:05:02.499Z,69.38
2022-08-28T16:07:03.868Z,70.68
2022-08-28T16:09:05.296Z,70.46
2022-08-28T16:11:06.901Z,70.03
2022-08-28T16:13:08.304Z,69.30
2022-08-28T16:15:09.672Z,69.50
2022-08-28T16:17:11.586Z,69.25
2022-08-28T16:19:13.147Z,69.09
2022-08-28T16:21:14.507Z,69.52
2022-08-28T16:23:15.979Z,69.60
2022-08-28T16:25:17.879Z,69.16
2022-08-28T16:27:19.339Z,69.38
2022-08-28T16:29:24.020Z,69.17
2022-08-28T16:31:25.536Z,69.49
2022-08-28T16:33:27.126Z,69.54
2022-08-28T16:35:28.611Z,69.58
2022-08-28T16:37:38.287Z,69.28
2022-08-28T16:39:41.600Z,70.23
2022-08-28T16:41:46.375Z,69.30
2022-08-28T16:43:48.007Z,68.61
2022-08-28T16:45:51.005Z,69.88
2022-08-28T16:47:52.394Z,69.29
2022-08-28T16:49:53.699Z,68.64
2022-08-28T16:51:55.032Z,70.14
2022-08-28T16:53:56.570Z,70.82
2022-08-28T16:55:57.948Z,71.15
2022-08-28T16:57:59.256Z,71.62
2022-08-28T17:00:00.726Z,71.63
2022-08-28T17:02:02.074Z,71.94
2022-08-28T17:04:03.439Z,72.01
2022-08-28T17:06:04.807Z,72.15
2022-08-28T17:08:06.125Z,72.48
2022-08-28T17:10:08.630Z,72.36
2022-08-28T17:12:10.218Z,72.50
2022-08-28T17:14:12.932Z,72.31
2022-08-28T17:16:14.355Z,72.56
2022-08-28T17:18:15.767Z,72.66
2022-08-28T17:20:35.483Z,72.86
2022-08-28T17:22:36.867Z,72.84
2022-08-28T17:24:38.428Z,72.62
2022-08-28T17:26:39.743Z,72.82
2022-08-28T17:28:41.127Z,73.04
2022-08-28T17:30:42.512Z,72.89
2022-08-28T17:32:43.923Z,73.15
2022-08-28T17:34:45.275Z,72.92
2022-08-28T17:36:46.594Z,73.17
2022-08-28T17:38:47.928Z,73.15
2022-08-28T17:40:49.307Z,73.23
2022-08-28T17:42:53.606Z,73.17
2022-08-28T17:44:55.392Z,73.21
2022-08-28T17:46:56.803Z,73.32
2022-08-28T17:48:58.207Z,73.33
2022-08-28T17:51:01.759Z,73.37
2022-08-28T17:53:03.088Z,73.45
2022-08-28T17:55:04.493Z,73.52
2022-08-28T17:57:05.816Z,73.49
2022-08-28T17:59:07.738Z,73.70
2022-08-28T18:01:09.071Z,73.70
2022-08-28T18:03:10.445Z,72.84
2022-08-28T18:05:11.824Z,71.60
2022-08-28T18:07:13.224Z,71.08
2022-08-28T18:09:14.650Z,70.56
2022-08-28T18:11:15.976Z,70.43
2022-08-28T18:13:17.320Z,70.69
2022-08-28T18:15:18.848Z,70.55
2022-08-28T18:17:20.465Z,69.96
2022-08-28T18:19:21.908Z,69.84
2022-08-28T18:21:25.987Z,70.16
2022-08-28T18:23:27.351Z,70.42
2022-08-28T18:25:50.791Z,70.30
2022-08-28T18:27:52.413Z,69.75
2022-08-28T18:29:53.859Z,70.04
2022-08-28T18:31:55.189Z,70.23
2022-08-28T18:33:56.905Z,70.22
2022-08-28T18:35:58.579Z,70.24
2022-08-28T18:38:00.014Z,70.40
2022-08-28T18:40:01.770Z,70.15
2022-08-28T18:42:03.315Z,70.25
2022-08-28T18:44:04.918Z,70.53
2022-08-28T18:46:09.769Z,70.24
2022-08-28T18:48:11.216Z,70.12
2022-08-28T18:50:12.609Z,70.53
2022-08-28T18:52:14.020Z,70.43
2022-08-28T18:54:16.442Z,70.09
2022-08-28T18:56:18.673Z,70.48
2022-08-28T18:58:23.167Z,70.28
2022-08-28T19:00:24.561Z,70.53
2022-08-28T19:02:26.061Z,70.25
2022-08-28T19:04:27.448Z,70.85
2022-08-28T19:06:29.167Z,70.42
2022-08-28T19:08:30.647Z,70.55
2022-08-28T19:10:34.476Z,70.55
2022-08-28T19:12:36.158Z,70.44
2022-08-28T19:14:37.903Z,70.54
2022-08-28T19:16:39.268Z,70.80
2022-08-28T19:18:40.582Z,71.24
2022-08-28T19:20:42.034Z,70.97
2022-08-28T19:22:43.448Z,70.61
2022-08-28T19:24:45.174Z,70.89
2022-08-28T19:26:46.560Z,70.26
2022-08-28T19:28:49.225Z,70.45
2022-08-28T19:30:51.002Z,70.43
2022-08-28T19:32:52.430Z,70.53
2022-08-28T19:34:53.904Z,70.12
2022-08-28T19:36:55.223Z,69.97
2022-08-28T19:38:56.631Z,70.39
2022-08-28T19:40:58.016Z,70.47
2022-08-28T19:43:00.638Z,70.34
2022-08-28T19:45:02.133Z,70.31
2022-08-28T19:47:03.488Z,70.44
2022-08-28T19:49:05.860Z,70.46
2022-08-28T19:51:07.240Z,70.55
2022-08-28T19:53:20.984Z,70.55
2022-08-28T19:55:22.333Z,70.24
2022-08-28T19:57:23.670Z,70.42
2022-08-28T19:59:27.138Z,68.65
2022-08-28T20:01:29.722Z,70.47
2022-08-28T20:03:31.410Z,70.52
2022-08-28T20:05:32.804Z,70.84
2022-08-28T20:07:34.128Z,70.01
2022-08-28T20:09:35.792Z,70.39
2022-08-28T20:11:37.631Z,70.03
2022-08-28T20:13:40.103Z,70.16
2022-08-28T20:15:41.485Z,70.24
2022-08-28T20:17:43.659Z,70.58
2022-08-28T20:19:46.201Z,69.88
2022-08-28T20:21:49.829Z,70.03
2022-08-28T20:23:51.197Z,70.62
2022-08-28T20:25:52.580Z,70.47
2022-08-28T20:27:55.032Z,70.06
2022-08-28T20:29:57.844Z,69.84
2022-08-28T20:31:59.172Z,69.90
2022-08-28T20:34:00.564Z,69.43
2022-08-28T20:36:01.903Z,69.27
2022-08-28T20:38:03.357Z,69.69
2022-08-28T20:40:09.832Z,69.67
2022-08-28T20:42:11.862Z,69.74
2022-08-28T20:44:13.246Z,69.42
2022-08-28T20:46:14.666Z,69.62
2022-08-28T20:48:16.091Z,69.64
2022-08-28T20:50:17.431Z,69.60
2022-08-28T20:52:18.780Z,69.74
2022-08-28T20:54:21.527Z,68.94
2022-08-28T20:56:22.885Z,70.18
2022-08-28T20:58:24.226Z,69.64
2022-08-28T21:00:25.605Z,69.78
2022-08-28T21:02:26.980Z,69.52
2022-08-28T21:04:31.290Z,69.63
2022-08-28T21:06:32.663Z,69.37
2022-08-28T21:08:34.041Z,69.17
2022-08-28T21:10:35.671Z,69.23
2022-08-28T21:12:37.073Z,69.31
2022-08-28T21:14:38.404Z,69.47
2022-08-28T21:16:40.137Z,68.29
2022-08-28T21:18:59.083Z,68.62
2022-08-28T21:21:03.455Z,69.46
2022-08-28T21:23:05.300Z,69.85
2022-08-28T21:25:07.221Z,69.14
2022-08-28T21:27:09.595Z,69.16
2022-08-28T21:29:10.987Z,69.75
2022-08-28T21:31:12.512Z,69.75
2022-08-28T21:33:14.339Z,69.55
2022-08-28T21:35:15.654Z,69.88
2022-08-28T21:37:17.040Z,69.52
2022-08-28T21:39:20.355Z,69.93
2022-08-28T21:41:21.664Z,70.60
2022-08-28T21:43:22.967Z,70.88
2022-08-28T21:45:25.367Z,70.90
2022-08-28T21:47:26.681Z,71.16
2022-08-28T21:49:28.014Z,71.45
2022-08-28T21:51:29.364Z,71.77
2022-08-28T21:53:31.378Z,71.68
2022-08-28T21:55:32.726Z,71.84
2022-08-28T21:57:34.530Z,71.75
2022-08-28T21:59:38.012Z,71.90
2022-08-28T22:01:39.648Z,72.00
2022-08-28T22:03:41.538Z,72.15
2022-08-28T22:05:42.858Z,72.17
2022-08-28T22:07:45.138Z,72.35
2022-08-28T22:09:46.632Z,72.14
2022-08-28T22:11:47.974Z,72.25
2022-08-28T22:13:49.307Z,72.26
2022-08-28T22:15:50.640Z,72.26
2022-08-28T22:17:52.107Z,72.59
2022-08-28T22:19:53.438Z,72.41
2022-08-28T22:22:13.651Z,72.38
2022-08-28T22:24:15.006Z,72.70
2022-08-28T22:26:16.335Z,72.63
2022-08-28T22:28:17.667Z,72.51
2022-08-28T22:30:19.017Z,72.51
2022-08-28T22:32:25.516Z,72.67
2022-08-28T22:34:26.946Z,72.97
2022-08-28T22:36:29.149Z,72.75
2022-08-28T22:38:30.811Z,72.83
2022-08-28T22:40:33.058Z,73.20
2022-08-28T22:42:34.435Z,72.97
2022-08-28T22:44:39.703Z,73.43
2022-08-28T22:46:41.011Z,73.13
2022-08-28T22:48:43.023Z,73.42
2022-08-28T22:50:44.343Z,73.83
2022-08-28T22:52:45.667Z,73.12
2022-08-28T22:54:47.090Z,73.21
2022-08-28T22:56:53.688Z,73.81
2022-08-28T22:58:55.034Z,73.55
2022-08-28T23:00:56.363Z,73.27
2022-08-28T23:02:57.807Z,73.28
2022-08-28T23:04:59.171Z,73.41
2022-08-28T23:07:00.500Z,73.26
2022-08-28T23:09:01.844Z,73.45
2022-08-28T23:11:03.163Z,73.58
2022-08-28T23:13:04.479Z,73.62
2022-08-28T23:15:06.650Z,73.68
2022-08-28T23:17:07.983Z,73.55
2022-08-28T23:19:13.283Z,73.61
2022-08-28T23:21:15.075Z,73.45
2022-08-28T23:23:16.585Z,73.36
2022-08-28T23:25:17.902Z,73.75
2022-08-28T23:27:35.765Z,73.80
2022-08-28T23:29:37.759Z,73.75
2022-08-28T23:31:39.170Z,74.30
2022-08-28T23:33:40.606Z,74.26
2022-08-28T23:35:42.291Z,74.94
2022-08-28T23:37:46.769Z,70.57
2022-08-28T23:39:50.195Z,72.09
2022-08-28T23:41:55.299Z,73.33
2022-08-28T23:43:56.764Z,73.37
2022-08-28T23:45:58.359Z,73.89
2022-08-28T23:47:59.824Z,73.71
2022-08-28T23:50:01.207Z,73.78
2022-08-28T23:52:02.531Z,73.57
2022-08-28T23:54:03.973Z,73.21
2022-08-28T23:56:07.271Z,74.25
2022-08-28T23:58:09.262Z,73.96
